sensor_id;sensor_type;location;lat;lon;timestamp;temperature;humidity
5808;DHT22;2930;42.678;23.312;2023-07-28T00:01:40;16.30;74.90
5808;DHT22;2930;42.678;23.312;2023-07-28T00:04:06;16.30;75.10
5808;DHT22;2930;42.678;23.312;2023-07-28T00:06:33;16.30;74.60
5808;DHT22;2930;42.678;23.312;2023-07-28T00:08:58;16.30;74.70
5808;DHT22;2930;42.678;23.312;2023-07-28T00:11:24;16.40;75.00
5808;DHT22;2930;42.678;23.312;2023-07-28T00:13:50;16.30;74.80
5808;DHT22;2930;42.678;23.312;2023-07-28T00:16:15;16.30;75.60
5808;DHT22;2930;42.678;23.312;2023-07-28T00:18:41;16.30;75.40
5808;DHT22;2930;42.678;23.312;2023-07-28T00:21:07;16.20;75.30
5808;DHT22;2930;42.678;23.312;2023-07-28T00:23:33;16.20;75.70
5808;DHT22;2930;42.678;23.312;2023-07-28T00:25:58;16.10;76.20
5808;DHT22;2930;42.678;23.312;2023-07-28T00:28:24;16.00;76.30
5808;DHT22;2930;42.678;23.312;2023-07-28T00:30:50;16.00;76.60
5808;DHT22;2930;42.678;23.312;2023-07-28T00:33:16;15.90;76.90
5808;DHT22;2930;42.678;23.312;2023-07-28T00:35:42;15.90;77.10
5808;DHT22;2930;42.678;23.312;2023-07-28T00:38:08;15.80;77.20
5808;DHT22;2930;42.678;23.312;2023-07-28T00:40:35;15.80;77.10
5808;DHT22;2930;42.678;23.312;2023-07-28T00:43:01;15.70;77.30
5808;DHT22;2930;42.678;23.312;2023-07-28T00:45:27;15.70;77.60
5808;DHT22;2930;42.678;23.312;2023-07-28T00:47:52;15.60;77.90
5808;DHT22;2930;42.678;23.312;2023-07-28T00:50:18;15.50;77.80
5808;DHT22;2930;42.678;23.312;2023-07-28T00:52:44;15.50;78.00
5808;DHT22;2930;42.678;23.312;2023-07-28T00:55:12;15.40;78.30
5808;DHT22;2930;42.678;23.312;2023-07-28T00:57:38;15.40;78.30
5808;DHT22;2930;42.678;23.312;2023-07-28T01:00:05;15.40;78.00
5808;DHT22;2930;42.678;23.312;2023-07-28T01:02:31;15.30;78.90
5808;DHT22;2930;42.678;23.312;2023-07-28T01:04:57;15.20;78.40
5808;DHT22;2930;42.678;23.312;2023-07-28T01:10:01;15.10;78.50
5808;DHT22;2930;42.678;23.312;2023-07-28T01:12:27;15.10;78.60
5808;DHT22;2930;42.678;23.312;2023-07-28T01:14:53;15.00;79.20
5808;DHT22;2930;42.678;23.312;2023-07-28T01:17:18;15.00;79.20
5808;DHT22;2930;42.678;23.312;2023-07-28T01:19:45;14.90;79.60
5808;DHT22;2930;42.678;23.312;2023-07-28T01:27:52;14.80;79.40
5808;DHT22;2930;42.678;23.312;2023-07-28T01:30:19;14.70;80.20
5808;DHT22;2930;42.678;23.312;2023-07-28T01:32:47;14.70;80.00
5808;DHT22;2930;42.678;23.312;2023-07-28T01:35:13;14.70;80.20
5808;DHT22;2930;42.678;23.312;2023-07-28T01:37:38;14.60;80.50
5808;DHT22;2930;42.678;23.312;2023-07-28T01:40:04;14.50;80.60
5808;DHT22;2930;42.678;23.312;2023-07-28T01:42:30;14.50;81.00
5808;DHT22;2930;42.678;23.312;2023-07-28T01:44:56;14.50;80.40
5808;DHT22;2930;42.678;23.312;2023-07-28T01:47:21;14.50;80.70
5808;DHT22;2930;42.678;23.312;2023-07-28T01:49:47;14.40;81.00
5808;DHT22;2930;42.678;23.312;2023-07-28T01:52:13;14.40;80.90
5808;DHT22;2930;42.678;23.312;2023-07-28T01:54:38;14.40;81.20
5808;DHT22;2930;42.678;23.312;2023-07-28T01:57:04;14.40;81.20
5808;DHT22;2930;42.678;23.312;2023-07-28T01:59:30;14.40;81.00
5808;DHT22;2930;42.678;23.312;2023-07-28T02:01:55;14.40;81.20
5808;DHT22;2930;42.678;23.312;2023-07-28T02:04:21;14.30;81.10
5808;DHT22;2930;42.678;23.312;2023-07-28T02:06:47;14.30;81.10
5808;DHT22;2930;42.678;23.312;2023-07-28T02:09:12;14.30;81.20
5808;DHT22;2930;42.678;23.312;2023-07-28T02:11:38;14.30;81.40
5808;DHT22;2930;42.678;23.312;2023-07-28T02:14:04;14.30;81.10
5808;DHT22;2930;42.678;23.312;2023-07-28T02:16:29;14.30;81.20
5808;DHT22;2930;42.678;23.312;2023-07-28T02:18:57;14.30;81.30
5808;DHT22;2930;42.678;23.312;2023-07-28T02:21:23;14.20;81.30
5808;DHT22;2930;42.678;23.312;2023-07-28T02:23:48;14.20;81.20
5808;DHT22;2930;42.678;23.312;2023-07-28T02:26:14;14.20;81.00
5808;DHT22;2930;42.678;23.312;2023-07-28T02:28:40;14.20;80.90
5808;DHT22;2930;42.678;23.312;2023-07-28T02:31:06;14.20;81.00
5808;DHT22;2930;42.678;23.312;2023-07-28T02:33:31;14.20;81.00
5808;DHT22;2930;42.678;23.312;2023-07-28T02:36:00;14.20;81.10
5808;DHT22;2930;42.678;23.312;2023-07-28T02:38:26;14.10;81.10
5808;DHT22;2930;42.678;23.312;2023-07-28T02:40:52;14.10;81.00
5808;DHT22;2930;42.678;23.312;2023-07-28T02:43:17;14.10;81.10
5808;DHT22;2930;42.678;23.312;2023-07-28T02:45:43;14.10;81.00
5808;DHT22;2930;42.678;23.312;2023-07-28T02:48:09;14.10;80.90
5808;DHT22;2930;42.678;23.312;2023-07-28T02:50:34;14.10;81.20
5808;DHT22;2930;42.678;23.312;2023-07-28T02:53:00;14.10;81.10
5808;DHT22;2930;42.678;23.312;2023-07-28T02:55:26;14.00;81.00
5808;DHT22;2930;42.678;23.312;2023-07-28T02:57:51;14.00;81.00
5808;DHT22;2930;42.678;23.312;2023-07-28T03:00:17;14.00;81.00
5808;DHT22;2930;42.678;23.312;2023-07-28T03:02:42;14.00;81.10
5808;DHT22;2930;42.678;23.312;2023-07-28T03:05:08;14.00;81.00
5808;DHT22;2930;42.678;23.312;2023-07-28T03:07:34;14.00;81.10
5808;DHT22;2930;42.678;23.312;2023-07-28T03:09:59;14.00;80.90
5808;DHT22;2930;42.678;23.312;2023-07-28T03:12:25;14.00;81.20
5808;DHT22;2930;42.678;23.312;2023-07-28T03:14:50;14.00;81.00
5808;DHT22;2930;42.678;23.312;2023-07-28T03:17:16;14.00;81.20
5808;DHT22;2930;42.678;23.312;2023-07-28T03:19:42;14.00;81.10
5808;DHT22;2930;42.678;23.312;2023-07-28T03:22:07;14.00;81.40
5808;DHT22;2930;42.678;23.312;2023-07-28T03:24:33;14.00;81.40
5808;DHT22;2930;42.678;23.312;2023-07-28T03:26:58;14.00;81.40
5808;DHT22;2930;42.678;23.312;2023-07-28T03:29:24;14.00;81.60
5808;DHT22;2930;42.678;23.312;2023-07-28T03:31:50;14.00;81.70
5808;DHT22;2930;42.678;23.312;2023-07-28T03:34:15;14.00;81.80
5808;DHT22;2930;42.678;23.312;2023-07-28T03:36:41;14.00;81.80
5808;DHT22;2930;42.678;23.312;2023-07-28T03:39:07;14.00;81.80
5808;DHT22;2930;42.678;23.312;2023-07-28T03:41:32;13.90;83.10
5808;DHT22;2930;42.678;23.312;2023-07-28T03:43:58;13.90;82.20
5808;DHT22;2930;42.678;23.312;2023-07-28T03:46:24;13.90;82.30
5808;DHT22;2930;42.678;23.312;2023-07-28T03:48:49;13.90;81.90
5808;DHT22;2930;42.678;23.312;2023-07-28T03:51:15;13.80;82.60
5808;DHT22;2930;42.678;23.312;2023-07-28T03:53:40;13.80;82.60
5808;DHT22;2930;42.678;23.312;2023-07-28T03:56:06;13.90;82.00
5808;DHT22;2930;42.678;23.312;2023-07-28T03:58:32;14.00;82.00
5808;DHT22;2930;42.678;23.312;2023-07-28T04:00:57;14.00;82.00
5808;DHT22;2930;42.678;23.312;2023-07-28T04:03:23;14.00;82.00
5808;DHT22;2930;42.678;23.312;2023-07-28T04:05:49;14.00;82.20
5808;DHT22;2930;42.678;23.312;2023-07-28T04:08:14;14.10;82.00
5808;DHT22;2930;42.678;23.312;2023-07-28T04:10:40;14.10;81.80
5808;DHT22;2930;42.678;23.312;2023-07-28T04:13:05;14.10;81.90
5808;DHT22;2930;42.678;23.312;2023-07-28T04:15:31;14.00;82.50
5808;DHT22;2930;42.678;23.312;2023-07-28T04:17:57;13.90;82.00
5808;DHT22;2930;42.678;23.312;2023-07-28T04:20:22;14.00;82.20
5808;DHT22;2930;42.678;23.312;2023-07-28T04:22:48;14.00;82.00
5808;DHT22;2930;42.678;23.312;2023-07-28T04:25:13;14.00;81.90
5808;DHT22;2930;42.678;23.312;2023-07-28T04:27:39;14.10;81.70
5808;DHT22;2930;42.678;23.312;2023-07-28T04:30:06;14.10;81.70
5808;DHT22;2930;42.678;23.312;2023-07-28T04:32:31;14.00;82.60
5808;DHT22;2930;42.678;23.312;2023-07-28T04:34:57;14.00;82.20
5808;DHT22;2930;42.678;23.312;2023-07-28T04:37:22;14.00;82.40
5808;DHT22;2930;42.678;23.312;2023-07-28T04:39:48;14.10;81.90
5808;DHT22;2930;42.678;23.312;2023-07-28T04:42:14;14.20;81.80
5808;DHT22;2930;42.678;23.312;2023-07-28T04:44:39;14.20;81.40
5808;DHT22;2930;42.678;23.312;2023-07-28T04:47:06;14.30;81.20
5808;DHT22;2930;42.678;23.312;2023-07-28T04:49:31;14.40;81.00
5808;DHT22;2930;42.678;23.312;2023-07-28T04:51:57;14.50;80.90
5808;DHT22;2930;42.678;23.312;2023-07-28T04:54:23;14.50;80.80
5808;DHT22;2930;42.678;23.312;2023-07-28T04:56:49;14.60;80.60
5808;DHT22;2930;42.678;23.312;2023-07-28T04:59:18;14.60;80.50
5808;DHT22;2930;42.678;23.312;2023-07-28T05:01:44;14.70;80.50
5808;DHT22;2930;42.678;23.312;2023-07-28T05:04:10;14.80;80.40
5808;DHT22;2930;42.678;23.312;2023-07-28T05:06:35;14.80;80.50
5808;DHT22;2930;42.678;23.312;2023-07-28T05:09:01;14.90;80.60
5808;DHT22;2930;42.678;23.312;2023-07-28T05:11:27;14.90;80.60
5808;DHT22;2930;42.678;23.312;2023-07-28T05:13:52;15.00;80.50
5808;DHT22;2930;42.678;23.312;2023-07-28T05:16:18;15.00;80.40
5808;DHT22;2930;42.678;23.312;2023-07-28T05:18:44;15.10;80.50
5808;DHT22;2930;42.678;23.312;2023-07-28T05:21:09;15.10;80.30
5808;DHT22;2930;42.678;23.312;2023-07-28T05:23:35;15.20;80.00
5808;DHT22;2930;42.678;23.312;2023-07-28T05:26:30;15.20;79.80
5808;DHT22;2930;42.678;23.312;2023-07-28T05:28:56;15.30;80.20
5808;DHT22;2930;42.678;23.312;2023-07-28T05:31:22;15.30;79.70
5808;DHT22;2930;42.678;23.312;2023-07-28T05:33:47;15.40;79.30
5808;DHT22;2930;42.678;23.312;2023-07-28T05:36:13;15.40;79.50
5808;DHT22;2930;42.678;23.312;2023-07-28T05:38:39;15.50;79.60
5808;DHT22;2930;42.678;23.312;2023-07-28T05:41:04;15.50;79.30
5808;DHT22;2930;42.678;23.312;2023-07-28T05:43:31;15.60;79.70
5808;DHT22;2930;42.678;23.312;2023-07-28T05:46:00;15.70;79.10
5808;DHT22;2930;42.678;23.312;2023-07-28T05:48:26;15.70;78.90
5808;DHT22;2930;42.678;23.312;2023-07-28T05:50:52;15.80;79.10
5808;DHT22;2930;42.678;23.312;2023-07-28T05:53:22;15.80;78.90
5808;DHT22;2930;42.678;23.312;2023-07-28T05:55:48;15.90;78.50
5808;DHT22;2930;42.678;23.312;2023-07-28T05:58:14;15.90;78.30
5808;DHT22;2930;42.678;23.312;2023-07-28T06:00:40;16.00;78.20
5808;DHT22;2930;42.678;23.312;2023-07-28T06:03:10;16.00;78.60
5808;DHT22;2930;42.678;23.312;2023-07-28T06:05:38;16.10;77.80
5808;DHT22;2930;42.678;23.312;2023-07-28T06:08:04;16.10;77.50
5808;DHT22;2930;42.678;23.312;2023-07-28T06:10:30;16.20;78.00
5808;DHT22;2930;42.678;23.312;2023-07-28T06:12:55;16.30;77.70
5808;DHT22;2930;42.678;23.312;2023-07-28T06:15:21;16.40;78.00
5808;DHT22;2930;42.678;23.312;2023-07-28T06:17:47;16.40;77.30
5808;DHT22;2930;42.678;23.312;2023-07-28T06:20:12;16.50;77.40
5808;DHT22;2930;42.678;23.312;2023-07-28T06:22:38;16.50;77.90
5808;DHT22;2930;42.678;23.312;2023-07-28T06:25:07;16.60;77.40
5808;DHT22;2930;42.678;23.312;2023-07-28T06:27:36;16.60;77.30
5808;DHT22;2930;42.678;23.312;2023-07-28T06:30:08;16.70;77.20
5808;DHT22;2930;42.678;23.312;2023-07-28T06:32:34;16.80;77.20
5808;DHT22;2930;42.678;23.312;2023-07-28T06:35:00;16.80;77.20
5808;DHT22;2930;42.678;23.312;2023-07-28T06:37:25;16.90;77.10
5808;DHT22;2930;42.678;23.312;2023-07-28T06:39:51;17.00;77.00
5808;DHT22;2930;42.678;23.312;2023-07-28T06:42:17;17.10;77.10
5808;DHT22;2930;42.678;23.312;2023-07-28T06:44:49;17.20;76.20
5808;DHT22;2930;42.678;23.312;2023-07-28T06:47:15;17.30;76.60
5808;DHT22;2930;42.678;23.312;2023-07-28T06:49:41;17.30;76.50
5808;DHT22;2930;42.678;23.312;2023-07-28T06:52:06;17.40;76.20
5808;DHT22;2930;42.678;23.312;2023-07-28T06:54:32;17.50;76.40
5808;DHT22;2930;42.678;23.312;2023-07-28T06:56:58;17.60;75.80
5808;DHT22;2930;42.678;23.312;2023-07-28T06:59:23;17.70;75.50
5808;DHT22;2930;42.678;23.312;2023-07-28T07:01:49;17.80;75.60
5808;DHT22;2930;42.678;23.312;2023-07-28T07:04:15;17.90;74.90
5808;DHT22;2930;42.678;23.312;2023-07-28T07:06:40;18.00;74.80
5808;DHT22;2930;42.678;23.312;2023-07-28T07:11:33;18.20;74.20
5808;DHT22;2930;42.678;23.312;2023-07-28T07:13:59;18.30;74.40
5808;DHT22;2930;42.678;23.312;2023-07-28T07:18:51;18.40;73.10
5808;DHT22;2930;42.678;23.312;2023-07-28T07:21:17;18.40;73.50
5808;DHT22;2930;42.678;23.312;2023-07-28T07:23:43;18.40;72.20
5808;DHT22;2930;42.678;23.312;2023-07-28T07:26:09;18.50;72.80
5808;DHT22;2930;42.678;23.312;2023-07-28T07:31:01;18.60;72.60
5808;DHT22;2930;42.678;23.312;2023-07-28T07:35:53;18.80;72.90
5808;DHT22;2930;42.678;23.312;2023-07-28T07:38:19;18.90;73.00
5808;DHT22;2930;42.678;23.312;2023-07-28T07:40:47;19.00;72.90
5808;DHT22;2930;42.678;23.312;2023-07-28T07:43:13;19.00;72.00
5808;DHT22;2930;42.678;23.312;2023-07-28T07:45:44;19.00;72.10
5808;DHT22;2930;42.678;23.312;2023-07-28T07:48:12;19.10;71.50
5808;DHT22;2930;42.678;23.312;2023-07-28T07:50:38;19.20;71.40
5808;DHT22;2930;42.678;23.312;2023-07-28T07:55:30;19.40;71.60
5808;DHT22;2930;42.678;23.312;2023-07-28T07:57:57;19.40;71.60
5808;DHT22;2930;42.678;23.312;2023-07-28T08:00:23;19.50;71.20
5808;DHT22;2930;42.678;23.312;2023-07-28T08:02:49;19.60;70.90
5808;DHT22;2930;42.678;23.312;2023-07-28T08:05:15;19.60;70.70
5808;DHT22;2930;42.678;23.312;2023-07-28T08:07:41;19.70;70.60
5808;DHT22;2930;42.678;23.312;2023-07-28T08:10:07;19.80;70.60
5808;DHT22;2930;42.678;23.312;2023-07-28T08:12:33;19.90;70.90
5808;DHT22;2930;42.678;23.312;2023-07-28T08:14:59;20.00;70.40
5808;DHT22;2930;42.678;23.312;2023-07-28T08:24:42;20.20;69.90
5808;DHT22;2930;42.678;23.312;2023-07-28T08:27:08;20.30;69.80
5808;DHT22;2930;42.678;23.312;2023-07-28T08:29:34;20.30;69.40
5808;DHT22;2930;42.678;23.312;2023-07-28T08:31:59;20.40;69.60
5808;DHT22;2930;42.678;23.312;2023-07-28T08:34:25;20.50;69.30
5808;DHT22;2930;42.678;23.312;2023-07-28T08:36:51;20.60;69.00
5808;DHT22;2930;42.678;23.312;2023-07-28T08:39:17;20.70;68.80
5808;DHT22;2930;42.678;23.312;2023-07-28T08:41:43;20.80;68.10
5808;DHT22;2930;42.678;23.312;2023-07-28T08:44:09;20.90;68.30
5808;DHT22;2930;42.678;23.312;2023-07-28T08:46:35;21.00;68.10
5808;DHT22;2930;42.678;23.312;2023-07-28T08:49:01;21.10;68.10
5808;DHT22;2930;42.678;23.312;2023-07-28T08:51:27;21.20;67.70
5808;DHT22;2930;42.678;23.312;2023-07-28T08:53:53;21.40;67.30
5808;DHT22;2930;42.678;23.312;2023-07-28T08:56:18;21.50;68.00
5808;DHT22;2930;42.678;23.312;2023-07-28T08:58:45;21.60;67.50
5808;DHT22;2930;42.678;23.312;2023-07-28T09:01:11;21.70;66.80
5808;DHT22;2930;42.678;23.312;2023-07-28T09:03:39;21.80;66.40
5808;DHT22;2930;42.678;23.312;2023-07-28T09:06:07;21.90;66.60
5808;DHT22;2930;42.678;23.312;2023-07-28T09:08:37;22.00;66.80
5808;DHT22;2930;42.678;23.312;2023-07-28T09:11:04;22.10;66.70
5808;DHT22;2930;42.678;23.312;2023-07-28T09:13:40;22.30;66.30
5808;DHT22;2930;42.678;23.312;2023-07-28T09:16:18;22.40;66.30
5808;DHT22;2930;42.678;23.312;2023-07-28T09:18:44;22.60;64.90
5808;DHT22;2930;42.678;23.312;2023-07-28T09:21:20;22.70;65.10
5808;DHT22;2930;42.678;23.312;2023-07-28T09:23:47;22.90;64.80
5808;DHT22;2930;42.678;23.312;2023-07-28T09:26:14;23.00;64.10
5808;DHT22;2930;42.678;23.312;2023-07-28T09:28:41;23.10;64.20
5808;DHT22;2930;42.678;23.312;2023-07-28T09:31:07;23.20;63.50
5808;DHT22;2930;42.678;23.312;2023-07-28T09:33:35;23.30;63.20
5808;DHT22;2930;42.678;23.312;2023-07-28T09:36:14;23.50;63.00
5808;DHT22;2930;42.678;23.312;2023-07-28T09:38:43;23.60;61.70
5808;DHT22;2930;42.678;23.312;2023-07-28T09:41:10;23.70;61.70
5808;DHT22;2930;42.678;23.312;2023-07-28T09:43:40;23.90;61.80
5808;DHT22;2930;42.678;23.312;2023-07-28T09:46:10;24.10;62.50
5808;DHT22;2930;42.678;23.312;2023-07-28T09:48:38;24.30;62.50
5808;DHT22;2930;42.678;23.312;2023-07-28T09:51:12;24.40;61.50
5808;DHT22;2930;42.678;23.312;2023-07-28T09:53:44;24.70;61.30
5808;DHT22;2930;42.678;23.312;2023-07-28T09:56:14;24.90;61.40
5808;DHT22;2930;42.678;23.312;2023-07-28T09:58:47;25.20;61.10
5808;DHT22;2930;42.678;23.312;2023-07-28T10:01:14;25.40;57.70
5808;DHT22;2930;42.678;23.312;2023-07-28T10:03:40;25.70;56.30
5808;DHT22;2930;42.678;23.312;2023-07-28T10:06:06;26.00;57.50
5808;DHT22;2930;42.678;23.312;2023-07-28T10:08:32;26.30;55.90
5808;DHT22;2930;42.678;23.312;2023-07-28T10:10:58;26.50;56.80
5808;DHT22;2930;42.678;23.312;2023-07-28T10:13:24;26.70;54.80
5808;DHT22;2930;42.678;23.312;2023-07-28T10:15:52;26.90;55.80
5808;DHT22;2930;42.678;23.312;2023-07-28T10:18:20;27.30;55.20
5808;DHT22;2930;42.678;23.312;2023-07-28T10:20:46;27.80;55.20
5808;DHT22;2930;42.678;23.312;2023-07-28T10:23:21;28.40;54.00
5808;DHT22;2930;42.678;23.312;2023-07-28T10:25:58;29.10;52.20
5808;DHT22;2930;42.678;23.312;2023-07-28T10:28:38;29.60;51.00
5808;DHT22;2930;42.678;23.312;2023-07-28T10:31:07;30.20;49.60
5808;DHT22;2930;42.678;23.312;2023-07-28T10:33:35;30.80;49.90
5808;DHT22;2930;42.678;23.312;2023-07-28T10:36:32;31.80;48.80
5808;DHT22;2930;42.678;23.312;2023-07-28T10:41:30;32.50;47.20
5808;DHT22;2930;42.678;23.312;2023-07-28T10:43:58;32.90;48.30
5808;DHT22;2930;42.678;23.312;2023-07-28T10:46:26;33.10;45.70
5808;DHT22;2930;42.678;23.312;2023-07-28T10:48:52;33.30;45.60
5808;DHT22;2930;42.678;23.312;2023-07-28T10:51:23;33.40;45.60
5808;DHT22;2930;42.678;23.312;2023-07-28T10:53:57;33.60;45.40
5808;DHT22;2930;42.678;23.312;2023-07-28T10:56:26;33.70;44.90
5808;DHT22;2930;42.678;23.312;2023-07-28T10:59:03;33.50;45.40
5808;DHT22;2930;42.678;23.312;2023-07-28T11:01:37;33.70;46.20
5808;DHT22;2930;42.678;23.312;2023-07-28T11:04:21;34.10;45.10
5808;DHT22;2930;42.678;23.312;2023-07-28T11:06:49;34.70;45.00
5808;DHT22;2930;42.678;23.312;2023-07-28T11:09:19;35.30;43.20
5808;DHT22;2930;42.678;23.312;2023-07-28T11:11:46;35.50;45.30
5808;DHT22;2930;42.678;23.312;2023-07-28T11:14:11;35.80;44.40
5808;DHT22;2930;42.678;23.312;2023-07-28T11:16:38;36.20;43.20
5808;DHT22;2930;42.678;23.312;2023-07-28T11:19:09;36.70;43.20
5808;DHT22;2930;42.678;23.312;2023-07-28T11:21:42;37.10;42.70
